KGLR/GLR METAR and TAF weather

Enter ICAO airport designator
Station Type Date Time Source
KGLR METAR 2021/03/08 14:53 UTC NOAA

KGLR 081453Z AUTO 25013G21KT 10SM CLR 08/M01 A3009 RMK AO2 SLP201 T00831011 55004


Station Type Date Time Source
KGLR Decoded METAR 2021/03/08 14:53 UTC NOAA

GAYLORD REGIONAL AIRPORT, MI, United States (KGLR) 45-01N 84-41W 407M
Mar 08, 2021 - 09:53 AM EST / 2021.03.08 1453 UTC
Wind: from the WSW (250 degrees) at 15 MPH (13 KT) gusting to 24 MPH (21 KT):0
Visibility: 10 mile(s):0
Sky conditions: clear
Temperature: 46.9 F (8.3 C)
Dew Point: 30.0 F (-1.1 C)
Relative Humidity: 51%
Pressure (altimeter): 30.09 in. Hg (1018 hPa)
Pressure tendency: 0.01 inches (0.4 hPa) lower than three hours ago
ob: KGLR 081453Z AUTO 25013G21KT 10SM CLR 08/M01 A3009 RMK AO2 SLP201 T00831011 55004
cycle: 15

Station Type Date Time Source
KGLR TAF UTC NOAA

Error!

Example: see airport list